sensor_id;sensor_type;location;lat;lon;timestamp;P1;durP1;ratioP1;P2;durP2;ratioP2
6149;SDS011;3106;42.670;23.318;2022-08-02T00:01:52;7.03;;;2.20;;
6149;SDS011;3106;42.670;23.318;2022-08-02T00:04:19;2.90;;;2.37;;
6149;SDS011;3106;42.670;23.318;2022-08-02T00:06:46;2.87;;;2.57;;
6149;SDS011;3106;42.670;23.318;2022-08-02T00:09:13;8.80;;;2.40;;
6149;SDS011;3106;42.670;23.318;2022-08-02T00:11:41;3.97;;;2.80;;
6149;SDS011;3106;42.670;23.318;2022-08-02T00:14:08;2.93;;;2.60;;
6149;SDS011;3106;42.670;23.318;2022-08-02T00:16:35;3.63;;;2.40;;
6149;SDS011;3106;42.670;23.318;2022-08-02T00:19:02;2.97;;;2.53;;
6149;SDS011;3106;42.670;23.318;2022-08-02T00:21:29;2.93;;;2.60;;
6149;SDS011;3106;42.670;23.318;2022-08-02T00:23:56;2.77;;;2.43;;
6149;SDS011;3106;42.670;23.318;2022-08-02T00:26:22;4.20;;;2.60;;
6149;SDS011;3106;42.670;23.318;2022-08-02T00:28:51;2.20;;;2.10;;
6149;SDS011;3106;42.670;23.318;2022-08-02T00:31:18;7.13;;;3.40;;
6149;SDS011;3106;42.670;23.318;2022-08-02T00:33:44;7.27;;;4.50;;
6149;SDS011;3106;42.670;23.318;2022-08-02T00:36:11;5.20;;;2.70;;
6149;SDS011;3106;42.670;23.318;2022-08-02T00:38:38;2.83;;;2.43;;
6149;SDS011;3106;42.670;23.318;2022-08-02T00:41:10;6.30;;;2.90;;
6149;SDS011;3106;42.670;23.318;2022-08-02T00:43:37;5.47;;;3.40;;
6149;SDS011;3106;42.670;23.318;2022-08-02T00:46:05;3.60;;;2.80;;
6149;SDS011;3106;42.670;23.318;2022-08-02T00:48:32;6.10;;;3.00;;
6149;SDS011;3106;42.670;23.318;2022-08-02T00:50:59;7.27;;;2.50;;
6149;SDS011;3106;42.670;23.318;2022-08-02T00:53:26;6.30;;;2.70;;
6149;SDS011;3106;42.670;23.318;2022-08-02T00:55:53;3.33;;;2.70;;
6149;SDS011;3106;42.670;23.318;2022-08-02T00:58:20;4.83;;;3.13;;
6149;SDS011;3106;42.670;23.318;2022-08-02T01:00:47;4.47;;;2.87;;
6149;SDS011;3106;42.670;23.318;2022-08-02T01:03:15;2.90;;;2.60;;
6149;SDS011;3106;42.670;23.318;2022-08-02T01:05:42;3.43;;;3.13;;
6149;SDS011;3106;42.670;23.318;2022-08-02T01:08:09;4.50;;;3.33;;
6149;SDS011;3106;42.670;23.318;2022-08-02T01:10:36;10.13;;;3.27;;
6149;SDS011;3106;42.670;23.318;2022-08-02T01:13:03;5.00;;;3.00;;
6149;SDS011;3106;42.670;23.318;2022-08-02T01:15:30;8.93;;;3.40;;
6149;SDS011;3106;42.670;23.318;2022-08-02T01:17:59;5.83;;;3.17;;
6149;SDS011;3106;42.670;23.318;2022-08-02T01:20:45;4.30;;;3.40;;
6149;SDS011;3106;42.670;23.318;2022-08-02T01:23:30;5.60;;;3.60;;
6149;SDS011;3106;42.670;23.318;2022-08-02T01:26:17;3.60;;;3.30;;
6149;SDS011;3106;42.670;23.318;2022-08-02T01:28:59;4.20;;;3.80;;
6149;SDS011;3106;42.670;23.318;2022-08-02T01:31:30;4.80;;;4.17;;
6149;SDS011;3106;42.670;23.318;2022-08-02T01:34:05;4.30;;;3.90;;
6149;SDS011;3106;42.670;23.318;2022-08-02T01:36:39;9.07;;;4.40;;
6149;SDS011;3106;42.670;23.318;2022-08-02T01:39:10;6.07;;;4.23;;
6149;SDS011;3106;42.670;23.318;2022-08-02T01:41:40;5.73;;;4.40;;
6149;SDS011;3106;42.670;23.318;2022-08-02T01:44:11;7.70;;;4.70;;
6149;SDS011;3106;42.670;23.318;2022-08-02T01:46:40;9.77;;;4.83;;
6149;SDS011;3106;42.670;23.318;2022-08-02T01:49:11;8.43;;;4.50;;
6149;SDS011;3106;42.670;23.318;2022-08-02T01:51:42;5.93;;;4.67;;
6149;SDS011;3106;42.670;23.318;2022-08-02T01:54:32;4.67;;;4.20;;
6149;SDS011;3106;42.670;23.318;2022-08-02T01:57:01;5.03;;;3.80;;
6149;SDS011;3106;42.670;23.318;2022-08-02T01:59:32;8.27;;;4.30;;
6149;SDS011;3106;42.670;23.318;2022-08-02T02:02:00;5.33;;;4.40;;
6149;SDS011;3106;42.670;23.318;2022-08-02T02:04:29;5.53;;;4.33;;
6149;SDS011;3106;42.670;23.318;2022-08-02T02:06:57;9.13;;;4.33;;
6149;SDS011;3106;42.670;23.318;2022-08-02T02:09:27;7.40;;;4.20;;
6149;SDS011;3106;42.670;23.318;2022-08-02T02:11:56;4.53;;;4.13;;
6149;SDS011;3106;42.670;23.318;2022-08-02T02:14:25;5.50;;;4.60;;
6149;SDS011;3106;42.670;23.318;2022-08-02T02:16:56;7.50;;;4.77;;
6149;SDS011;3106;42.670;23.318;2022-08-02T02:19:24;6.90;;;4.77;;
6149;SDS011;3106;42.670;23.318;2022-08-02T02:21:53;13.27;;;4.60;;
6149;SDS011;3106;42.670;23.318;2022-08-02T02:24:20;6.07;;;4.70;;
6149;SDS011;3106;42.670;23.318;2022-08-02T02:26:47;7.00;;;4.40;;
6149;SDS011;3106;42.670;23.318;2022-08-02T02:29:14;7.80;;;4.87;;
6149;SDS011;3106;42.670;23.318;2022-08-02T02:31:44;5.47;;;4.80;;
6149;SDS011;3106;42.670;23.318;2022-08-02T02:34:15;5.70;;;4.80;;
6149;SDS011;3106;42.670;23.318;2022-08-02T02:36:45;5.80;;;4.50;;
6149;SDS011;3106;42.670;23.318;2022-08-02T02:39:15;5.50;;;4.40;;
6149;SDS011;3106;42.670;23.318;2022-08-02T02:41:45;9.10;;;4.10;;
6149;SDS011;3106;42.670;23.318;2022-08-02T02:44:15;5.50;;;4.30;;
6149;SDS011;3106;42.670;23.318;2022-08-02T02:46:46;5.13;;;4.60;;
6149;SDS011;3106;42.670;23.318;2022-08-02T02:49:17;5.60;;;4.17;;
6149;SDS011;3106;42.670;23.318;2022-08-02T02:51:45;8.43;;;4.20;;
6149;SDS011;3106;42.670;23.318;2022-08-02T02:54:14;4.30;;;3.87;;
6149;SDS011;3106;42.670;23.318;2022-08-02T02:56:41;10.63;;;5.07;;
6149;SDS011;3106;42.670;23.318;2022-08-02T02:59:11;8.10;;;3.90;;
6149;SDS011;3106;42.670;23.318;2022-08-02T03:01:39;4.93;;;3.50;;
6149;SDS011;3106;42.670;23.318;2022-08-02T03:04:06;6.80;;;4.17;;
6149;SDS011;3106;42.670;23.318;2022-08-02T03:06:37;5.67;;;4.40;;
6149;SDS011;3106;42.670;23.318;2022-08-02T03:09:05;4.43;;;4.03;;
6149;SDS011;3106;42.670;23.318;2022-08-02T03:11:32;7.33;;;4.30;;
6149;SDS011;3106;42.670;23.318;2022-08-02T03:14:01;4.80;;;4.30;;
6149;SDS011;3106;42.670;23.318;2022-08-02T03:16:29;7.50;;;4.13;;
6149;SDS011;3106;42.670;23.318;2022-08-02T03:18:56;8.90;;;4.37;;
6149;SDS011;3106;42.670;23.318;2022-08-02T03:21:26;8.03;;;4.60;;
6149;SDS011;3106;42.670;23.318;2022-08-02T03:23:55;7.93;;;4.40;;
6149;SDS011;3106;42.670;23.318;2022-08-02T03:26:22;8.00;;;4.43;;
6149;SDS011;3106;42.670;23.318;2022-08-02T03:28:48;4.80;;;4.40;;
6149;SDS011;3106;42.670;23.318;2022-08-02T03:31:15;5.83;;;5.03;;
6149;SDS011;3106;42.670;23.318;2022-08-02T03:33:42;4.80;;;4.40;;
6149;SDS011;3106;42.670;23.318;2022-08-02T03:36:09;7.00;;;4.67;;
6149;SDS011;3106;42.670;23.318;2022-08-02T03:38:39;7.40;;;4.50;;
6149;SDS011;3106;42.670;23.318;2022-08-02T03:41:10;5.93;;;4.30;;
6149;SDS011;3106;42.670;23.318;2022-08-02T03:43:38;5.97;;;4.67;;
6149;SDS011;3106;42.670;23.318;2022-08-02T03:46:07;8.33;;;4.67;;
6149;SDS011;3106;42.670;23.318;2022-08-02T03:48:35;5.90;;;4.27;;
6149;SDS011;3106;42.670;23.318;2022-08-02T03:51:03;5.80;;;4.47;;
6149;SDS011;3106;42.670;23.318;2022-08-02T03:53:31;4.40;;;4.00;;
6149;SDS011;3106;42.670;23.318;2022-08-02T03:55:58;8.60;;;4.20;;
6149;SDS011;3106;42.670;23.318;2022-08-02T03:58:27;6.70;;;4.53;;
6149;SDS011;3106;42.670;23.318;2022-08-02T04:00:55;7.73;;;4.50;;
6149;SDS011;3106;42.670;23.318;2022-08-02T04:03:23;8.00;;;5.10;;
6149;SDS011;3106;42.670;23.318;2022-08-02T04:05:50;5.30;;;4.77;;
6149;SDS011;3106;42.670;23.318;2022-08-02T04:08:17;15.23;;;5.40;;
6149;SDS011;3106;42.670;23.318;2022-08-02T04:10:44;9.90;;;4.50;;
6149;SDS011;3106;42.670;23.318;2022-08-02T04:13:31;8.20;;;5.50;;
6149;SDS011;3106;42.670;23.318;2022-08-02T04:16:02;5.50;;;4.87;;
6149;SDS011;3106;42.670;23.318;2022-08-02T04:18:33;6.77;;;4.77;;
6149;SDS011;3106;42.670;23.318;2022-08-02T04:21:04;9.73;;;5.23;;
6149;SDS011;3106;42.670;23.318;2022-08-02T04:23:34;26.87;;;5.93;;
6149;SDS011;3106;42.670;23.318;2022-08-02T04:26:03;8.53;;;4.83;;
6149;SDS011;3106;42.670;23.318;2022-08-02T04:28:32;14.93;;;5.93;;
6149;SDS011;3106;42.670;23.318;2022-08-02T04:31:01;21.13;;;5.07;;
6149;SDS011;3106;42.670;23.318;2022-08-02T04:33:28;13.13;;;5.50;;
6149;SDS011;3106;42.670;23.318;2022-08-02T04:35:55;12.73;;;5.30;;
6149;SDS011;3106;42.670;23.318;2022-08-02T04:38:23;8.80;;;5.00;;
6149;SDS011;3106;42.670;23.318;2022-08-02T04:40:51;16.90;;;5.63;;
6149;SDS011;3106;42.670;23.318;2022-08-02T04:43:19;15.13;;;4.97;;
6149;SDS011;3106;42.670;23.318;2022-08-02T04:45:49;20.13;;;5.20;;
6149;SDS011;3106;42.670;23.318;2022-08-02T04:48:17;9.53;;;5.67;;
6149;SDS011;3106;42.670;23.318;2022-08-02T04:50:44;9.03;;;4.70;;
6149;SDS011;3106;42.670;23.318;2022-08-02T04:53:11;14.70;;;5.33;;
6149;SDS011;3106;42.670;23.318;2022-08-02T04:55:38;6.33;;;4.80;;
6149;SDS011;3106;42.670;23.318;2022-08-02T04:58:05;8.13;;;5.00;;
6149;SDS011;3106;42.670;23.318;2022-08-02T05:00:32;11.83;;;5.03;;
6149;SDS011;3106;42.670;23.318;2022-08-02T05:03:00;8.73;;;4.80;;
6149;SDS011;3106;42.670;23.318;2022-08-02T05:05:27;9.60;;;4.77;;
6149;SDS011;3106;42.670;23.318;2022-08-02T05:07:54;6.80;;;4.53;;
6149;SDS011;3106;42.670;23.318;2022-08-02T05:10:21;9.70;;;4.90;;
6149;SDS011;3106;42.670;23.318;2022-08-02T05:12:48;13.90;;;4.50;;
6149;SDS011;3106;42.670;23.318;2022-08-02T05:15:15;6.73;;;5.00;;
6149;SDS011;3106;42.670;23.318;2022-08-02T05:17:42;12.53;;;5.80;;
6149;SDS011;3106;42.670;23.318;2022-08-02T05:20:11;19.20;;;10.30;;
6149;SDS011;3106;42.670;23.318;2022-08-02T05:22:38;12.53;;;5.10;;
6149;SDS011;3106;42.670;23.318;2022-08-02T05:25:06;7.67;;;5.30;;
6149;SDS011;3106;42.670;23.318;2022-08-02T05:27:33;10.80;;;5.37;;
6149;SDS011;3106;42.670;23.318;2022-08-02T05:30:00;29.00;;;18.33;;
6149;SDS011;3106;42.670;23.318;2022-08-02T05:32:28;8.73;;;4.80;;
6149;SDS011;3106;42.670;23.318;2022-08-02T05:34:55;15.23;;;4.90;;
6149;SDS011;3106;42.670;23.318;2022-08-02T05:37:23;12.90;;;4.47;;
6149;SDS011;3106;42.670;23.318;2022-08-02T05:39:50;9.97;;;4.20;;
6149;SDS011;3106;42.670;23.318;2022-08-02T05:42:16;5.93;;;3.60;;
6149;SDS011;3106;42.670;23.318;2022-08-02T05:44:43;4.73;;;3.73;;
6149;SDS011;3106;42.670;23.318;2022-08-02T05:47:10;7.37;;;3.83;;
6149;SDS011;3106;42.670;23.318;2022-08-02T05:49:37;5.50;;;3.20;;
6149;SDS011;3106;42.670;23.318;2022-08-02T05:52:06;6.80;;;3.20;;
6149;SDS011;3106;42.670;23.318;2022-08-02T05:54:41;5.50;;;3.60;;
6149;SDS011;3106;42.670;23.318;2022-08-02T05:57:15;14.63;;;3.20;;
6149;SDS011;3106;42.670;23.318;2022-08-02T05:59:52;8.80;;;3.33;;
6149;SDS011;3106;42.670;23.318;2022-08-02T06:02:35;11.73;;;3.43;;
6149;SDS011;3106;42.670;23.318;2022-08-02T06:05:09;3.17;;;2.87;;
6149;SDS011;3106;42.670;23.318;2022-08-02T06:07:39;4.33;;;2.90;;
6149;SDS011;3106;42.670;23.318;2022-08-02T06:10:10;6.53;;;3.20;;
6149;SDS011;3106;42.670;23.318;2022-08-02T06:12:40;4.57;;;3.10;;
6149;SDS011;3106;42.670;23.318;2022-08-02T06:15:14;8.23;;;3.53;;
6149;SDS011;3106;42.670;23.318;2022-08-02T06:17:42;8.57;;;5.50;;
6149;SDS011;3106;42.670;23.318;2022-08-02T06:20:10;3.23;;;3.00;;
6149;SDS011;3106;42.670;23.318;2022-08-02T06:22:39;7.20;;;3.90;;
6149;SDS011;3106;42.670;23.318;2022-08-02T06:25:08;7.33;;;3.13;;
6149;SDS011;3106;42.670;23.318;2022-08-02T06:27:37;4.70;;;4.23;;
6149;SDS011;3106;42.670;23.318;2022-08-02T06:30:05;5.07;;;3.17;;
6149;SDS011;3106;42.670;23.318;2022-08-02T06:32:32;4.27;;;2.97;;
6149;SDS011;3106;42.670;23.318;2022-08-02T06:34:59;3.87;;;2.87;;
6149;SDS011;3106;42.670;23.318;2022-08-02T06:37:28;12.33;;;3.00;;
6149;SDS011;3106;42.670;23.318;2022-08-02T06:40:03;4.00;;;3.10;;
6149;SDS011;3106;42.670;23.318;2022-08-02T06:42:40;5.50;;;3.37;;
6149;SDS011;3106;42.670;23.318;2022-08-02T06:45:13;6.70;;;4.03;;
6149;SDS011;3106;42.670;23.318;2022-08-02T06:47:40;13.60;;;6.17;;
6149;SDS011;3106;42.670;23.318;2022-08-02T06:50:07;8.20;;;4.13;;
6149;SDS011;3106;42.670;23.318;2022-08-02T06:52:35;11.20;;;6.50;;
6149;SDS011;3106;42.670;23.318;2022-08-02T06:55:03;5.17;;;3.00;;
6149;SDS011;3106;42.670;23.318;2022-08-02T06:57:31;2.90;;;2.63;;
6149;SDS011;3106;42.670;23.318;2022-08-02T07:00:00;7.63;;;2.67;;
6149;SDS011;3106;42.670;23.318;2022-08-02T07:02:29;2.93;;;2.60;;
6149;SDS011;3106;42.670;23.318;2022-08-02T07:04:56;4.17;;;2.60;;
6149;SDS011;3106;42.670;23.318;2022-08-02T07:07:24;3.00;;;2.70;;
6149;SDS011;3106;42.670;23.318;2022-08-02T07:09:52;5.40;;;3.00;;
6149;SDS011;3106;42.670;23.318;2022-08-02T07:12:19;14.03;;;3.10;;
6149;SDS011;3106;42.670;23.318;2022-08-02T07:14:45;5.63;;;3.13;;
6149;SDS011;3106;42.670;23.318;2022-08-02T07:17:14;7.80;;;2.90;;
6149;SDS011;3106;42.670;23.318;2022-08-02T07:19:40;5.47;;;3.17;;
6149;SDS011;3106;42.670;23.318;2022-08-02T07:22:08;3.50;;;3.20;;
6149;SDS011;3106;42.670;23.318;2022-08-02T07:24:36;7.73;;;3.53;;
6149;SDS011;3106;42.670;23.318;2022-08-02T07:27:04;4.33;;;2.70;;
6149;SDS011;3106;42.670;23.318;2022-08-02T07:29:30;5.90;;;2.70;;
6149;SDS011;3106;42.670;23.318;2022-08-02T07:31:57;6.43;;;2.90;;
6149;SDS011;3106;42.670;23.318;2022-08-02T07:34:25;14.80;;;2.67;;
6149;SDS011;3106;42.670;23.318;2022-08-02T07:36:52;8.90;;;3.10;;
6149;SDS011;3106;42.670;23.318;2022-08-02T07:39:19;3.17;;;2.60;;
6149;SDS011;3106;42.670;23.318;2022-08-02T07:41:46;8.90;;;2.60;;
6149;SDS011;3106;42.670;23.318;2022-08-02T07:44:15;2.87;;;2.67;;
6149;SDS011;3106;42.670;23.318;2022-08-02T07:46:42;3.07;;;2.77;;
6149;SDS011;3106;42.670;23.318;2022-08-02T07:49:09;12.53;;;2.40;;
6149;SDS011;3106;42.670;23.318;2022-08-02T07:51:39;3.63;;;2.80;;
6149;SDS011;3106;42.670;23.318;2022-08-02T07:54:06;2.90;;;2.70;;
6149;SDS011;3106;42.670;23.318;2022-08-02T07:56:32;7.07;;;2.50;;
6149;SDS011;3106;42.670;23.318;2022-08-02T07:58:59;6.50;;;2.40;;
6149;SDS011;3106;42.670;23.318;2022-08-02T08:01:26;3.13;;;2.50;;
6149;SDS011;3106;42.670;23.318;2022-08-02T08:03:53;3.00;;;2.37;;
6149;SDS011;3106;42.670;23.318;2022-08-02T08:06:20;2.73;;;2.53;;
6149;SDS011;3106;42.670;23.318;2022-08-02T08:08:48;4.40;;;2.47;;
6149;SDS011;3106;42.670;23.318;2022-08-02T08:11:15;4.80;;;2.10;;
6149;SDS011;3106;42.670;23.318;2022-08-02T08:13:42;7.83;;;2.40;;
6149;SDS011;3106;42.670;23.318;2022-08-02T08:16:09;10.00;;;2.63;;
6149;SDS011;3106;42.670;23.318;2022-08-02T08:18:36;2.50;;;2.20;;
6149;SDS011;3106;42.670;23.318;2022-08-02T08:21:03;6.13;;;2.87;;
6149;SDS011;3106;42.670;23.318;2022-08-02T08:23:30;4.10;;;1.87;;
6149;SDS011;3106;42.670;23.318;2022-08-02T08:25:58;4.13;;;1.90;;
6149;SDS011;3106;42.670;23.318;2022-08-02T08:28:25;4.03;;;2.27;;
6149;SDS011;3106;42.670;23.318;2022-08-02T08:30:52;4.60;;;2.10;;
6149;SDS011;3106;42.670;23.318;2022-08-02T08:33:19;4.90;;;3.10;;
6149;SDS011;3106;42.670;23.318;2022-08-02T08:35:46;4.37;;;2.50;;
6149;SDS011;3106;42.670;23.318;2022-08-02T08:38:13;4.07;;;2.40;;
6149;SDS011;3106;42.670;23.318;2022-08-02T08:40:40;2.40;;;2.20;;
6149;SDS011;3106;42.670;23.318;2022-08-02T08:43:10;3.10;;;2.27;;
6149;SDS011;3106;42.670;23.318;2022-08-02T08:45:38;2.90;;;2.40;;
6149;SDS011;3106;42.670;23.318;2022-08-02T08:48:05;8.33;;;2.80;;
6149;SDS011;3106;42.670;23.318;2022-08-02T08:50:36;6.87;;;2.70;;
6149;SDS011;3106;42.670;23.318;2022-08-02T08:53:07;2.53;;;2.30;;
6149;SDS011;3106;42.670;23.318;2022-08-02T08:55:35;2.00;;;1.90;;
6149;SDS011;3106;42.670;23.318;2022-08-02T08:58:03;5.50;;;2.30;;
6149;SDS011;3106;42.670;23.318;2022-08-02T09:00:32;2.20;;;2.00;;
6149;SDS011;3106;42.670;23.318;2022-08-02T09:03:00;1.93;;;1.60;;
6149;SDS011;3106;42.670;23.318;2022-08-02T09:05:28;2.00;;;1.90;;
6149;SDS011;3106;42.670;23.318;2022-08-02T09:07:55;2.33;;;2.13;;
6149;SDS011;3106;42.670;23.318;2022-08-02T09:10:34;5.80;;;2.27;;
6149;SDS011;3106;42.670;23.318;2022-08-02T09:13:10;2.13;;;2.03;;
6149;SDS011;3106;42.670;23.318;2022-08-02T09:15:41;3.93;;;1.80;;
6149;SDS011;3106;42.670;23.318;2022-08-02T09:18:09;8.03;;;2.27;;
6149;SDS011;3106;42.670;23.318;2022-08-02T09:20:50;6.03;;;2.90;;
6149;SDS011;3106;42.670;23.318;2022-08-02T09:23:18;3.87;;;2.30;;
6149;SDS011;3106;42.670;23.318;2022-08-02T09:25:54;8.60;;;2.43;;
6149;SDS011;3106;42.670;23.318;2022-08-02T09:28:24;3.83;;;1.80;;
6149;SDS011;3106;42.670;23.318;2022-08-02T09:30:56;2.90;;;2.70;;
6149;SDS011;3106;42.670;23.318;2022-08-02T09:33:28;3.63;;;2.17;;
6149;SDS011;3106;42.670;23.318;2022-08-02T09:35:58;3.33;;;2.00;;
6149;SDS011;3106;42.670;23.318;2022-08-02T09:38:26;11.17;;;1.70;;
6149;SDS011;3106;42.670;23.318;2022-08-02T09:40:53;3.43;;;2.27;;
6149;SDS011;3106;42.670;23.318;2022-08-02T09:43:20;2.33;;;2.17;;
6149;SDS011;3106;42.670;23.318;2022-08-02T09:45:47;8.53;;;2.70;;
6149;SDS011;3106;42.670;23.318;2022-08-02T09:48:15;5.33;;;2.20;;
6149;SDS011;3106;42.670;23.318;2022-08-02T09:50:42;4.67;;;2.00;;
6149;SDS011;3106;42.670;23.318;2022-08-02T09:53:11;4.10;;;2.47;;
6149;SDS011;3106;42.670;23.318;2022-08-02T09:55:38;4.40;;;3.80;;
6149;SDS011;3106;42.670;23.318;2022-08-02T09:58:16;10.07;;;4.37;;
6149;SDS011;3106;42.670;23.318;2022-08-02T10:00:53;4.93;;;2.77;;
6149;SDS011;3106;42.670;23.318;2022-08-02T10:03:21;7.83;;;1.80;;
6149;SDS011;3106;42.670;23.318;2022-08-02T10:05:49;2.33;;;2.10;;
6149;SDS011;3106;42.670;23.318;2022-08-02T10:08:17;4.90;;;2.43;;
6149;SDS011;3106;42.670;23.318;2022-08-02T10:10:46;4.13;;;2.33;;
6149;SDS011;3106;42.670;23.318;2022-08-02T10:13:24;2.67;;;2.10;;
6149;SDS011;3106;42.670;23.318;2022-08-02T10:15:52;2.50;;;1.80;;
6149;SDS011;3106;42.670;23.318;2022-08-02T10:18:22;3.33;;;2.13;;
6149;SDS011;3106;42.670;23.318;2022-08-02T10:20:49;3.63;;;1.83;;
6149;SDS011;3106;42.670;23.318;2022-08-02T10:23:16;6.43;;;2.00;;
6149;SDS011;3106;42.670;23.318;2022-08-02T10:25:47;2.23;;;1.83;;
6149;SDS011;3106;42.670;23.318;2022-08-02T10:28:16;1.90;;;1.80;;
6149;SDS011;3106;42.670;23.318;2022-08-02T10:30:45;1.90;;;1.80;;
6149;SDS011;3106;42.670;23.318;2022-08-02T10:33:13;2.00;;;1.90;;
6149;SDS011;3106;42.670;23.318;2022-08-02T10:35:45;5.10;;;1.90;;
6149;SDS011;3106;42.670;23.318;2022-08-02T10:38:15;2.13;;;1.87;;
6149;SDS011;3106;42.670;23.318;2022-08-02T10:40:45;4.73;;;2.93;;
6149;SDS011;3106;42.670;23.318;2022-08-02T10:43:23;1.90;;;1.80;;
6149;SDS011;3106;42.670;23.318;2022-08-02T10:46:21;2.37;;;1.80;;
6149;SDS011;3106;42.670;23.318;2022-08-02T10:49:00;1.70;;;1.40;;
6149;SDS011;3106;42.670;23.318;2022-08-02T10:54:38;4.03;;;3.27;;
6149;SDS011;3106;42.670;23.318;2022-08-02T10:57:16;3.47;;;3.10;;
6149;SDS011;3106;42.670;23.318;2022-08-02T10:59:44;9.63;;;2.20;;
6149;SDS011;3106;42.670;23.318;2022-08-02T11:02:12;1.63;;;1.53;;
6149;SDS011;3106;42.670;23.318;2022-08-02T11:05:01;6.13;;;1.70;;
6149;SDS011;3106;42.670;23.318;2022-08-02T11:07:32;1.73;;;1.63;;
6149;SDS011;3106;42.670;23.318;2022-08-02T11:12:58;1.80;;;1.60;;
6149;SDS011;3106;42.670;23.318;2022-08-02T11:15:52;4.03;;;2.07;;
6149;SDS011;3106;42.670;23.318;2022-08-02T11:21:33;3.50;;;2.20;;
6149;SDS011;3106;42.670;23.318;2022-08-02T11:26:52;1.90;;;1.80;;
6149;SDS011;3106;42.670;23.318;2022-08-02T11:29:20;2.60;;;1.90;;
6149;SDS011;3106;42.670;23.318;2022-08-02T11:31:47;5.40;;;1.80;;
6149;SDS011;3106;42.670;23.318;2022-08-02T11:34:15;2.20;;;1.90;;
6149;SDS011;3106;42.670;23.318;2022-08-02T11:36:43;2.50;;;1.97;;
6149;SDS011;3106;42.670;23.318;2022-08-02T11:39:12;2.80;;;2.40;;
6149;SDS011;3106;42.670;23.318;2022-08-02T11:41:41;1.90;;;1.70;;
6149;SDS011;3106;42.670;23.318;2022-08-02T11:44:09;15.20;;;2.20;;
6149;SDS011;3106;42.670;23.318;2022-08-02T11:46:36;1.90;;;1.80;;
6149;SDS011;3106;42.670;23.318;2022-08-02T11:49:12;2.00;;;1.90;;
6149;SDS011;3106;42.670;23.318;2022-08-02T11:51:49;1.80;;;1.70;;
6149;SDS011;3106;42.670;23.318;2022-08-02T11:54:24;5.30;;;2.20;;
6149;SDS011;3106;42.670;23.318;2022-08-02T11:56:53;1.50;;;1.40;;
6149;SDS011;3106;42.670;23.318;2022-08-02T11:59:21;2.47;;;1.57;;
6149;SDS011;3106;42.670;23.318;2022-08-02T12:01:48;2.40;;;1.80;;
6149;SDS011;3106;42.670;23.318;2022-08-02T12:04:16;1.87;;;1.70;;
6149;SDS011;3106;42.670;23.318;2022-08-02T12:06:54;1.43;;;1.33;;
6149;SDS011;3106;42.670;23.318;2022-08-02T12:09:24;1.67;;;1.57;;
6149;SDS011;3106;42.670;23.318;2022-08-02T12:11:51;1.50;;;1.40;;
6149;SDS011;3106;42.670;23.318;2022-08-02T12:14:18;1.87;;;1.67;;
6149;SDS011;3106;42.670;23.318;2022-08-02T12:16:47;4.37;;;1.70;;
6149;SDS011;3106;42.670;23.318;2022-08-02T12:19:31;1.57;;;1.40;;
6149;SDS011;3106;42.670;23.318;2022-08-02T12:22:06;1.80;;;1.70;;
6149;SDS011;3106;42.670;23.318;2022-08-02T12:24:35;1.67;;;1.57;;
6149;SDS011;3106;42.670;23.318;2022-08-02T12:27:02;1.43;;;1.33;;
6149;SDS011;3106;42.670;23.318;2022-08-02T12:29:30;3.50;;;1.57;;
6149;SDS011;3106;42.670;23.318;2022-08-02T12:31:59;4.30;;;1.50;;
6149;SDS011;3106;42.670;23.318;2022-08-02T12:34:27;1.70;;;1.63;;
6149;SDS011;3106;42.670;23.318;2022-08-02T12:36:58;2.00;;;1.80;;
6149;SDS011;3106;42.670;23.318;2022-08-02T12:39:33;2.70;;;1.37;;
6149;SDS011;3106;42.670;23.318;2022-08-02T12:42:01;1.33;;;1.33;;
6149;SDS011;3106;42.670;23.318;2022-08-02T12:44:28;1.73;;;1.63;;
6149;SDS011;3106;42.670;23.318;2022-08-02T12:47:01;8.10;;;1.53;;
6149;SDS011;3106;42.670;23.318;2022-08-02T12:49:30;1.70;;;1.60;;
6149;SDS011;3106;42.670;23.318;2022-08-02T12:51:57;4.30;;;1.77;;
6149;SDS011;3106;42.670;23.318;2022-08-02T12:54:25;2.90;;;1.40;;
6149;SDS011;3106;42.670;23.318;2022-08-02T12:56:53;2.10;;;1.50;;
6149;SDS011;3106;42.670;23.318;2022-08-02T12:59:32;2.90;;;1.87;;
6149;SDS011;3106;42.670;23.318;2022-08-02T13:02:01;2.60;;;1.70;;
6149;SDS011;3106;42.670;23.318;2022-08-02T13:04:29;4.33;;;1.40;;
6149;SDS011;3106;42.670;23.318;2022-08-02T13:06:56;2.17;;;2.07;;
6149;SDS011;3106;42.670;23.318;2022-08-02T13:09:23;10.80;;;2.13;;
6149;SDS011;3106;42.670;23.318;2022-08-02T13:11:50;4.23;;;2.50;;
6149;SDS011;3106;42.670;23.318;2022-08-02T13:14:17;1.50;;;1.40;;
6149;SDS011;3106;42.670;23.318;2022-08-02T13:16:44;1.47;;;1.23;;
6149;SDS011;3106;42.670;23.318;2022-08-02T13:19:13;1.80;;;1.70;;
6149;SDS011;3106;42.670;23.318;2022-08-02T13:21:41;1.43;;;1.33;;
6149;SDS011;3106;42.670;23.318;2022-08-02T13:24:10;1.83;;;1.73;;
6149;SDS011;3106;42.670;23.318;2022-08-02T13:26:38;2.00;;;1.80;;
6149;SDS011;3106;42.670;23.318;2022-08-02T13:29:05;2.50;;;1.70;;
6149;SDS011;3106;42.670;23.318;2022-08-02T13:31:33;1.97;;;1.80;;
6149;SDS011;3106;42.670;23.318;2022-08-02T13:34:01;2.83;;;2.63;;
6149;SDS011;3106;42.670;23.318;2022-08-02T13:36:30;11.80;;;2.33;;
6149;SDS011;3106;42.670;23.318;2022-08-02T13:38:58;4.77;;;1.63;;
6149;SDS011;3106;42.670;23.318;2022-08-02T13:41:24;3.93;;;1.40;;
6149;SDS011;3106;42.670;23.318;2022-08-02T13:43:51;2.10;;;1.50;;
6149;SDS011;3106;42.670;23.318;2022-08-02T13:46:18;1.60;;;1.50;;
6149;SDS011;3106;42.670;23.318;2022-08-02T13:48:45;1.20;;;1.20;;
6149;SDS011;3106;42.670;23.318;2022-08-02T13:51:12;1.60;;;1.50;;
6149;SDS011;3106;42.670;23.318;2022-08-02T13:53:40;1.50;;;1.40;;
6149;SDS011;3106;42.670;23.318;2022-08-02T13:56:07;1.40;;;1.30;;
6149;SDS011;3106;42.670;23.318;2022-08-02T13:58:34;1.60;;;1.50;;
6149;SDS011;3106;42.670;23.318;2022-08-02T14:01:01;1.70;;;1.60;;
6149;SDS011;3106;42.670;23.318;2022-08-02T14:03:28;1.50;;;1.40;;
6149;SDS011;3106;42.670;23.318;2022-08-02T14:05:55;1.60;;;1.50;;
6149;SDS011;3106;42.670;23.318;2022-08-02T14:08:21;1.60;;;1.50;;
6149;SDS011;3106;42.670;23.318;2022-08-02T14:10:50;18.80;;;1.80;;
6149;SDS011;3106;42.670;23.318;2022-08-02T14:13:17;1.77;;;1.67;;
6149;SDS011;3106;42.670;23.318;2022-08-02T14:15:44;1.47;;;1.37;;
6149;SDS011;3106;42.670;23.318;2022-08-02T14:18:11;2.60;;;1.53;;
6149;SDS011;3106;42.670;23.318;2022-08-02T14:20:39;1.50;;;1.40;;
6149;SDS011;3106;42.670;23.318;2022-08-02T14:23:06;1.70;;;1.60;;
6149;SDS011;3106;42.670;23.318;2022-08-02T14:25:33;1.70;;;1.50;;
6149;SDS011;3106;42.670;23.318;2022-08-02T14:28:01;1.87;;;1.30;;
6149;SDS011;3106;42.670;23.318;2022-08-02T14:30:28;2.07;;;1.60;;
6149;SDS011;3106;42.670;23.318;2022-08-02T14:32:55;3.53;;;1.30;;
6149;SDS011;3106;42.670;23.318;2022-08-02T14:35:22;1.50;;;1.40;;
6149;SDS011;3106;42.670;23.318;2022-08-02T14:37:49;1.87;;;1.77;;
6149;SDS011;3106;42.670;23.318;2022-08-02T14:40:16;3.20;;;1.63;;
6149;SDS011;3106;42.670;23.318;2022-08-02T14:42:43;1.60;;;1.50;;
6149;SDS011;3106;42.670;23.318;2022-08-02T14:45:11;1.70;;;1.60;;
6149;SDS011;3106;42.670;23.318;2022-08-02T14:47:39;1.20;;;1.10;;
6149;SDS011;3106;42.670;23.318;2022-08-02T14:50:06;2.07;;;1.43;;
6149;SDS011;3106;42.670;23.318;2022-08-02T14:52:33;2.13;;;1.60;;
6149;SDS011;3106;42.670;23.318;2022-08-02T14:55:00;2.40;;;1.57;;
6149;SDS011;3106;42.670;23.318;2022-08-02T14:57:28;1.17;;;1.17;;
6149;SDS011;3106;42.670;23.318;2022-08-02T14:59:55;2.17;;;1.40;;
6149;SDS011;3106;42.670;23.318;2022-08-02T15:02:26;1.00;;;1.00;;
6149;SDS011;3106;42.670;23.318;2022-08-02T15:04:52;1.67;;;1.37;;
6149;SDS011;3106;42.670;23.318;2022-08-02T15:07:19;1.60;;;1.50;;
6149;SDS011;3106;42.670;23.318;2022-08-02T15:09:46;1.03;;;1.03;;
6149;SDS011;3106;42.670;23.318;2022-08-02T15:12:13;1.40;;;1.30;;
6149;SDS011;3106;42.670;23.318;2022-08-02T15:14:40;1.10;;;1.10;;
6149;SDS011;3106;42.670;23.318;2022-08-02T15:17:07;4.50;;;1.50;;
6149;SDS011;3106;42.670;23.318;2022-08-02T15:19:36;2.60;;;1.53;;
6149;SDS011;3106;42.670;23.318;2022-08-02T15:22:05;1.60;;;1.50;;
6149;SDS011;3106;42.670;23.318;2022-08-02T15:24:32;4.43;;;1.73;;